Time;durP1;ratioP1;P1;durP2;ratioP2;P2;SDS_P1;SDS_P2;PMS_P1;PMS_P2;Temp;Humidity;BMP_temperature;BMP_pressure;BME280_temperature;BME280_humidity;BME280_pressure;Samples;Min_cycle;Max_cycle;Signal;HPM_P1;HPM_P2
2023/12/29 00:02:23;;;;;;;4.55;2.20;;;14.20;69.00;;;;;;2255787;55;21002;-68
2023/12/29 00:04:50;;;;;;;3.62;2.30;;;14.20;69.00;;;;;;2255850;55;20970;-68
2023/12/29 00:07:17;;;;;;;3.95;2.00;;;14.20;68.90;;;;;;2488098;54;20938;-68
2023/12/29 00:09:44;;;;;;;3.83;2.30;;;14.20;68.90;;;;;;2266401;56;21066;-68
2023/12/29 00:12:10;;;;;;;3.47;2.05;;;14.20;68.90;;;;;;2282003;56;21512;-68
2023/12/29 00:14:38;;;;;;;3.55;2.28;;;14.20;68.90;;;;;;2281711;56;20929;-67
2023/12/29 00:17:05;;;;;;;4.40;2.40;;;14.20;68.80;;;;;;2281563;56;20996;-68
2023/12/29 00:19:31;;;;;;;4.25;2.20;;;14.20;68.90;;;;;;2281653;56;20932;-68
2023/12/29 00:21:59;;;;;;;4.20;2.30;;;14.20;68.90;;;;;;2281098;55;21012;-68
2023/12/29 00:24:26;;;;;;;3.87;2.20;;;14.30;68.90;;;;;;2281694;56;20976;-68
2023/12/29 00:26:53;;;;;;;4.03;2.47;;;14.20;68.70;;;;;;2281828;56;20908;-68
2023/12/29 00:29:20;;;;;;;3.97;2.05;;;14.20;68.80;;;;;;2281324;56;20988;-67
2023/12/29 00:31:46;;;;;;;3.20;1.92;;;14.20;68.80;;;;;;2280416;55;20969;-67
2023/12/29 00:34:12;;;;;;;5.68;2.30;;;14.30;68.90;;;;;;2281658;55;21039;-67
2023/12/29 00:36:39;;;;;;;4.45;2.50;;;14.30;68.90;;;;;;2281327;56;21063;-68
2023/12/29 00:39:08;;;;;;;3.72;2.40;;;14.20;68.70;;;;;;2514236;55;21395;-69
2023/12/29 00:41:34;;;;;;;5.35;2.25;;;14.30;68.80;;;;;;2281799;56;21842;-68
2023/12/29 00:44:01;;;;;;;4.05;2.08;;;14.30;68.90;;;;;;2514566;55;21066;-68
2023/12/29 00:46:27;;;;;;;4.37;2.58;;;14.30;68.90;;;;;;2281656;55;20968;-68
2023/12/29 00:48:54;;;;;;;3.80;2.10;;;14.20;68.70;;;;;;2281880;56;20963;-68
2023/12/29 00:51:20;;;;;;;4.20;2.47;;;14.30;68.80;;;;;;2514580;54;21012;-68
2023/12/29 00:53:46;;;;;;;3.53;1.90;;;14.30;68.80;;;;;;2281624;56;21052;-68
2023/12/29 00:56:13;;;;;;;3.50;2.12;;;14.30;68.80;;;;;;2288372;55;21047;-67
2023/12/29 00:58:40;;;;;;;3.78;2.03;;;14.30;68.80;;;;;;2281630;56;21406;-68
2023/12/29 01:01:08;;;;;;;3.70;2.10;;;14.30;68.80;;;;;;2278504;55;21013;-67
2023/12/29 01:07:02;;;;;;;3.70;2.17;;;14.30;68.00;;;;;;2484921;55;20963;-68
2023/12/29 01:09:29;;;;;;;3.70;2.08;;;14.30;68.90;;;;;;2486920;55;20966;-68
2023/12/29 01:11:55;;;;;;;4.32;2.17;;;14.30;68.80;;;;;;2256240;56;21808;-67
2023/12/29 01:14:23;;;;;;;3.87;1.90;;;14.30;68.70;;;;;;2484010;55;21542;-68
2023/12/29 01:16:49;;;;;;;4.03;2.10;;;14.30;68.70;;;;;;2257704;56;20970;-67
2023/12/29 01:19:15;;;;;;;5.50;1.95;;;14.30;68.60;;;;;;2255829;56;21022;-68
2023/12/29 01:21:42;;;;;;;3.97;2.42;;;14.30;68.60;;;;;;2256067;56;20939;-67
2023/12/29 01:24:11;;;;;;;4.30;2.42;;;14.30;68.60;;;;;;2260567;56;21032;-67
2023/12/29 01:26:38;;;;;;;4.00;2.05;;;14.30;68.60;;;;;;2256683;55;21026;-68
2023/12/29 01:29:05;;;;;;;4.12;2.00;;;14.20;68.40;;;;;;2489822;55;21467;-68
2023/12/29 01:31:31;;;;;;;4.10;2.10;;;14.20;69.10;;;;;;2256006;55;20983;-68
2023/12/29 01:33:58;;;;;;;3.35;2.10;;;14.30;68.50;;;;;;2258690;55;20955;-67
2023/12/29 01:36:24;;;;;;;3.87;2.30;;;14.30;68.50;;;;;;2483382;55;20983;-68
2023/12/29 01:38:51;;;;;;;3.50;2.08;;;14.20;68.40;;;;;;2490081;54;21464;-68
2023/12/29 01:41:20;;;;;;;4.35;2.30;;;14.20;68.40;;;;;;2272030;55;21051;-67
2023/12/29 01:44:20;;;;;;;3.95;2.45;;;14.20;68.30;;;;;;2266573;56;21475;-67
2023/12/29 01:46:48;;;;;;;4.32;2.37;;;14.20;67.30;;;;;;2260801;55;21606;-68
2023/12/29 01:49:18;;;;;;;3.90;2.30;;;14.20;68.40;;;;;;2255341;55;21046;-68
2023/12/29 01:51:45;;;;;;;4.47;2.55;;;14.20;68.40;;;;;;2260671;56;21018;-67
2023/12/29 01:54:14;;;;;;;4.50;2.12;;;14.20;68.50;;;;;;2256134;55;20970;-68
2023/12/29 01:56:41;;;;;;;3.42;2.12;;;14.20;68.50;;;;;;2256093;56;21118;-68
2023/12/29 01:59:07;;;;;;;3.87;2.10;;;14.20;68.50;;;;;;2256190;56;20995;-68
2023/12/29 02:01:37;;;;;;;4.55;2.08;;;14.20;68.50;;;;;;2256477;55;20979;-68
2023/12/29 02:04:03;;;;;;;3.72;2.20;;;14.20;68.50;;;;;;2483267;54;21000;-68
2023/12/29 02:06:29;;;;;;;4.10;2.40;;;14.20;68.50;;;;;;2483676;54;20958;-68
2023/12/29 02:08:56;;;;;;;3.83;2.20;;;14.20;68.90;;;;;;2256479;56;21789;-68
2023/12/29 02:11:23;;;;;;;4.70;2.45;;;14.20;68.60;;;;;;2255987;56;21306;-68
2023/12/29 02:13:49;;;;;;;3.72;2.17;;;14.20;68.60;;;;;;2268711;56;20995;-68
2023/12/29 02:16:21;;;;;;;4.55;2.08;;;14.20;68.60;;;;;;2244117;56;21024;-68
2023/12/29 02:18:48;;;;;;;4.30;2.70;;;14.20;68.40;;;;;;2497060;54;20954;-67
2023/12/29 02:21:14;;;;;;;3.58;2.17;;;14.20;68.70;;;;;;2260498;55;21004;-68
2023/12/29 02:23:41;;;;;;;5.10;2.03;;;14.30;68.80;;;;;;2256212;55;21018;-67
2023/12/29 02:26:10;;;;;;;4.62;2.00;;;14.20;68.70;;;;;;2286615;56;21409;-67
2023/12/29 02:28:39;;;;;;;3.47;2.17;;;14.20;68.60;;;;;;2531256;54;21042;-68
2023/12/29 02:31:10;;;;;;;3.67;2.10;;;14.20;68.60;;;;;;2294516;56;20947;-67
2023/12/29 02:33:40;;;;;;;3.87;2.30;;;14.20;68.60;;;;;;2531871;54;20904;-68
2023/12/29 02:36:09;;;;;;;4.05;2.22;;;14.20;68.60;;;;;;2294790;55;21333;-68
2023/12/29 02:38:36;;;;;;;3.85;2.33;;;14.20;68.70;;;;;;2295213;56;21282;-68
2023/12/29 02:41:03;;;;;;;4.65;2.62;;;14.20;68.70;;;;;;2294396;55;21335;-68
2023/12/29 02:43:32;;;;;;;4.50;2.40;;;14.20;68.70;;;;;;2295418;55;20968;-68
2023/12/29 02:45:59;;;;;;;4.15;2.33;;;14.20;68.60;;;;;;2295688;56;20969;-68
2023/12/29 02:48:26;;;;;;;5.15;2.17;;;14.20;68.60;;;;;;2531562;54;20972;-68
2023/12/29 02:50:53;;;;;;;3.72;2.15;;;14.20;68.70;;;;;;2294863;56;20951;-67
2023/12/29 02:53:19;;;;;;;3.83;2.12;;;14.20;68.70;;;;;;2531375;54;20987;-68
2023/12/29 02:55:49;;;;;;;3.50;2.22;;;14.20;68.70;;;;;;2530816;54;20932;-68
2023/12/29 02:58:16;;;;;;;3.75;2.10;;;14.20;68.60;;;;;;2531022;54;20964;-68
2023/12/29 03:00:42;;;;;;;5.00;2.17;;;14.20;68.70;;;;;;2295395;56;20948;-67
2023/12/29 03:03:08;;;;;;;4.53;2.33;;;14.20;68.70;;;;;;2294639;56;20916;-68
2023/12/29 03:05:35;;;;;;;5.25;2.20;;;14.30;68.90;;;;;;2531000;54;20960;-68
2023/12/29 03:08:02;;;;;;;3.92;2.40;;;14.20;68.80;;;;;;2295015;56;21162;-67
2023/12/29 03:10:28;;;;;;;3.78;2.25;;;14.20;68.80;;;;;;2295637;56;20984;-68
2023/12/29 03:12:55;;;;;;;4.22;2.40;;;14.20;68.70;;;;;;2530882;54;20972;-68
2023/12/29 03:15:21;;;;;;;5.75;2.20;;;14.20;68.80;;;;;;2295235;56;21497;-67
2023/12/29 03:17:51;;;;;;;4.70;2.45;;;14.20;68.80;;;;;;2531249;54;21787;-68
2023/12/29 03:20:18;;;;;;;5.05;2.58;;;14.20;68.80;;;;;;2294585;55;21321;-68
2023/12/29 03:22:44;;;;;;;3.60;2.20;;;14.20;68.70;;;;;;2531814;54;20920;-68
2023/12/29 03:25:11;;;;;;;4.55;2.08;;;14.20;68.80;;;;;;2487722;55;21001;-67
2023/12/29 03:27:38;;;;;;;4.40;2.62;;;14.20;68.80;;;;;;2270325;55;20930;-68
2023/12/29 03:30:05;;;;;;;4.00;2.22;;;14.20;68.80;;;;;;2483356;55;21010;-67
2023/12/29 03:32:31;;;;;;;5.15;2.40;;;14.20;68.80;;;;;;2255718;56;20971;-68
2023/12/29 03:34:58;;;;;;;5.18;2.67;;;14.20;68.80;;;;;;2256359;56;20986;-68
2023/12/29 03:37:24;;;;;;;5.65;2.30;;;14.10;68.70;;;;;;2255985;56;20939;-68
2023/12/29 03:39:51;;;;;;;4.55;2.45;;;14.20;68.90;;;;;;2262651;56;20973;-68
2023/12/29 03:42:20;;;;;;;3.92;2.30;;;14.20;68.90;;;;;;2247584;56;21875;-68
2023/12/29 03:44:46;;;;;;;6.28;2.65;;;14.10;68.90;;;;;;2256258;55;20967;-67
2023/12/29 03:47:12;;;;;;;3.80;2.30;;;14.20;69.00;;;;;;2483349;55;20951;-68
2023/12/29 03:49:41;;;;;;;3.90;2.33;;;14.10;68.90;;;;;;2255700;56;20935;-67
2023/12/29 03:52:08;;;;;;;4.20;2.40;;;14.10;68.80;;;;;;2482850;55;21078;-68
2023/12/29 03:54:34;;;;;;;4.05;2.42;;;14.20;69.10;;;;;;2256420;56;21451;-68
2023/12/29 03:57:00;;;;;;;4.20;2.58;;;14.10;68.90;;;;;;2256428;56;20974;-68
2023/12/29 03:59:29;;;;;;;4.78;2.60;;;14.10;68.90;;;;;;2483821;55;21027;-68
2023/12/29 04:01:56;;;;;;;4.75;2.50;;;14.10;68.90;;;;;;2256061;56;21074;-68
2023/12/29 04:04:25;;;;;;;5.07;2.80;;;14.10;68.90;;;;;;2258951;56;21045;-68
2023/12/29 04:06:52;;;;;;;3.87;2.60;;;14.10;69.10;;;;;;2262210;56;20973;-68
2023/12/29 04:09:18;;;;;;;4.45;2.83;;;14.10;69.10;;;;;;2474074;55;20971;-68
2023/12/29 04:11:44;;;;;;;4.15;2.53;;;14.10;69.20;;;;;;2255609;57;20948;-67
2023/12/29 04:14:12;;;;;;;4.30;2.50;;;14.10;69.20;;;;;;2260724;56;21067;-68
2023/12/29 04:16:39;;;;;;;6.43;2.42;;;14.10;69.20;;;;;;2484191;55;20955;-68
2023/12/29 04:19:05;;;;;;;4.80;2.58;;;14.10;69.20;;;;;;2482990;55;21500;-68
2023/12/29 04:21:31;;;;;;;4.22;2.50;;;14.20;69.30;;;;;;2256203;55;21026;-68
2023/12/29 04:23:58;;;;;;;4.30;2.40;;;14.10;69.20;;;;;;2255428;55;20970;-68
2023/12/29 04:26:24;;;;;;;5.32;2.40;;;14.10;69.20;;;;;;2477282;55;21603;-68
2023/12/29 04:28:50;;;;;;;4.10;2.40;;;14.10;69.20;;;;;;2475941;54;20959;-68
2023/12/29 04:31:17;;;;;;;3.72;2.28;;;14.10;69.20;;;;;;2261778;55;20961;-67
2023/12/29 04:33:43;;;;;;;3.80;2.17;;;14.10;69.20;;;;;;2247108;55;20989;-68
2023/12/29 04:36:09;;;;;;;4.32;2.37;;;14.10;69.20;;;;;;2251123;55;21763;-68
2023/12/29 04:38:36;;;;;;;4.10;2.40;;;14.10;69.20;;;;;;2500234;54;21034;-68
2023/12/29 04:41:02;;;;;;;3.67;2.10;;;14.10;69.20;;;;;;2286426;57;20953;-68
2023/12/29 04:43:28;;;;;;;4.28;2.42;;;14.10;69.20;;;;;;2286540;55;21009;-67
2023/12/29 04:45:56;;;;;;;3.78;2.08;;;14.10;69.20;;;;;;2287041;55;21647;-68
2023/12/29 04:48:23;;;;;;;3.87;2.08;;;14.10;69.30;;;;;;2286052;55;20942;-68
2023/12/29 04:50:49;;;;;;;3.95;1.52;;;14.10;69.30;;;;;;2286367;55;20966;-68
2023/12/29 04:53:16;;;;;;;3.83;2.30;;;14.10;69.30;;;;;;2285222;57;20934;-68
2023/12/29 04:55:43;;;;;;;4.15;2.40;;;14.10;69.40;;;;;;2286547;56;21462;-68
2023/12/29 04:58:09;;;;;;;4.65;2.37;;;14.10;69.40;;;;;;2520001;55;20938;-68
2023/12/29 05:00:35;;;;;;;4.43;2.30;;;14.10;69.40;;;;;;2286679;55;20980;-67
2023/12/29 05:03:02;;;;;;;4.90;2.55;;;14.10;69.40;;;;;;2286484;57;21352;-68
2023/12/29 05:05:28;;;;;;;4.35;2.50;;;14.10;70.00;;;;;;2286300;57;20942;-68
2023/12/29 05:07:54;;;;;;;5.18;2.35;;;14.10;69.40;;;;;;2502565;54;20923;-67
2023/12/29 05:10:21;;;;;;;4.28;2.50;;;14.10;69.30;;;;;;2285625;55;21804;-68
2023/12/29 05:12:47;;;;;;;4.15;2.20;;;14.10;69.30;;;;;;2286049;57;20910;-67
2023/12/29 05:15:14;;;;;;;4.72;2.85;;;14.10;69.30;;;;;;2520667;54;20922;-68
2023/12/29 05:17:42;;;;;;;3.40;2.03;;;14.10;69.30;;;;;;2286614;55;20930;-68
2023/12/29 05:20:09;;;;;;;3.90;2.37;;;14.10;69.30;;;;;;2520216;54;21727;-68
2023/12/29 05:22:36;;;;;;;5.28;2.70;;;14.00;69.20;;;;;;2502739;54;20934;-68
2023/12/29 05:25:03;;;;;;;4.37;2.62;;;14.10;69.30;;;;;;2275195;55;21749;-67
2023/12/29 05:27:29;;;;;;;4.07;2.40;;;14.00;69.20;;;;;;2286004;57;21002;-68
2023/12/29 05:29:58;;;;;;;4.93;2.50;;;14.00;69.30;;;;;;2286111;57;21510;-68
2023/12/29 05:32:25;;;;;;;3.92;2.33;;;14.00;69.30;;;;;;2505563;54;21078;-67
2023/12/29 05:34:51;;;;;;;4.80;2.55;;;14.00;69.30;;;;;;2283550;55;20918;-68
2023/12/29 05:37:17;;;;;;;4.68;2.65;;;14.00;69.30;;;;;;2520218;55;20914;-68
2023/12/29 05:39:44;;;;;;;4.95;2.40;;;14.00;69.20;;;;;;2287029;56;20914;-68
2023/12/29 05:42:12;;;;;;;4.45;2.45;;;14.00;69.20;;;;;;2285344;57;20993;-68
2023/12/29 05:44:38;;;;;;;4.85;2.80;;;14.00;69.20;;;;;;2520471;54;21384;-68
2023/12/29 05:47:05;;;;;;;4.97;2.55;;;14.00;69.20;;;;;;2519784;54;20986;-67
2023/12/29 05:49:31;;;;;;;4.65;2.45;;;14.00;69.20;;;;;;2286715;55;20941;-68
2023/12/29 05:52:00;;;;;;;4.07;2.42;;;14.00;69.20;;;;;;2286675;57;20922;-67
2023/12/29 05:54:27;;;;;;;5.22;2.40;;;14.00;69.10;;;;;;2284682;57;21332;-68
2023/12/29 05:56:53;;;;;;;4.07;2.50;;;14.00;69.20;;;;;;2521475;55;20894;-68
2023/12/29 05:59:19;;;;;;;4.50;2.37;;;14.00;69.20;;;;;;2285842;57;20918;-68
2023/12/29 06:01:47;;;;;;;4.85;2.20;;;13.90;69.20;;;;;;2521225;54;20922;-69
2023/12/29 06:04:13;;;;;;;6.93;2.67;;;14.00;69.20;;;;;;2519870;54;20947;-68
2023/12/29 06:06:42;;;;;;;4.32;2.50;;;14.00;69.20;;;;;;2286649;57;21017;-68
2023/12/29 06:09:10;;;;;;;4.93;2.50;;;13.90;69.10;;;;;;2504756;54;20978;-68
2023/12/29 06:11:36;;;;;;;3.87;2.53;;;13.90;69.20;;;;;;2285526;55;22070;-68
2023/12/29 06:14:03;;;;;;;4.40;2.62;;;14.00;69.30;;;;;;2285806;57;20909;-68
2023/12/29 06:16:30;;;;;;;4.40;2.42;;;13.90;69.20;;;;;;2286818;55;20973;-68
2023/12/29 06:19:38;;;;;;;4.72;2.78;;;13.90;69.20;;;;;;2521087;55;20949;-68
2023/12/29 06:22:05;;;;;;;5.40;2.22;;;13.90;68.60;;;;;;2521116;54;21469;-68
2023/12/29 06:24:33;;;;;;;4.40;2.60;;;13.90;69.20;;;;;;2286372;55;20945;-68
2023/12/29 06:26:59;;;;;;;3.83;2.20;;;13.90;69.90;;;;;;2521199;55;21112;-67
2023/12/29 06:29:25;;;;;;;4.50;2.47;;;13.90;69.30;;;;;;2520076;54;20926;-68
2023/12/29 06:31:52;;;;;;;4.12;2.70;;;13.90;69.30;;;;;;2285913;57;20933;-68
2023/12/29 06:34:21;;;;;;;3.80;2.33;;;13.90;69.30;;;;;;2286102;57;21001;-68
2023/12/29 06:36:49;;;;;;;4.28;2.20;;;13.90;69.30;;;;;;2516667;55;21039;-68
2023/12/29 06:39:16;;;;;;;3.80;2.22;;;13.90;69.40;;;;;;2274915;55;21001;-67
2023/12/29 06:41:42;;;;;;;3.30;1.95;;;13.90;69.40;;;;;;2286839;55;20981;-68
2023/12/29 06:44:09;;;;;;;4.32;2.08;;;13.90;69.50;;;;;;2286397;55;20906;-67
2023/12/29 06:46:37;;;;;;;3.70;2.17;;;13.90;69.50;;;;;;2286632;57;21416;-68
2023/12/29 06:49:08;;;;;;;4.53;2.30;;;13.90;69.40;;;;;;2286152;57;21411;-68
2023/12/29 06:51:45;;;;;;;3.83;2.12;;;13.90;69.50;;;;;;2285969;55;20973;-68
2023/12/29 06:54:11;;;;;;;3.95;2.12;;;13.90;69.60;;;;;;2519786;55;20934;-68
2023/12/29 06:56:38;;;;;;;5.30;2.20;;;13.90;69.60;;;;;;2296706;55;21134;-68
2023/12/29 06:59:04;;;;;;;3.40;1.83;;;13.90;69.60;;;;;;2281131;55;21816;-68
2023/12/29 07:01:30;;;;;;;3.05;1.80;;;13.90;69.60;;;;;;2520496;54;21033;-68
2023/12/29 07:03:57;;;;;;;3.95;2.00;;;13.90;69.60;;;;;;2520356;54;20934;-68
2023/12/29 07:06:23;;;;;;;4.07;2.10;;;13.90;69.60;;;;;;2286207;55;20950;-67
2023/12/29 07:08:49;;;;;;;3.30;2.05;;;14.00;69.70;;;;;;2282656;55;21042;-68
2023/12/29 07:11:15;;;;;;;3.47;1.92;;;13.90;69.60;;;;;;2502998;54;21027;-67
2023/12/29 07:13:42;;;;;;;5.75;2.25;;;13.90;69.60;;;;;;2275648;55;20970;-68
2023/12/29 07:16:08;;;;;;;4.12;1.90;;;13.90;69.70;;;;;;2520757;54;21014;-68
2023/12/29 07:18:35;;;;;;;3.80;2.17;;;14.00;69.70;;;;;;2281061;55;20990;-68
2023/12/29 07:21:02;;;;;;;4.82;2.10;;;14.00;69.70;;;;;;2273733;55;20982;-68
2023/12/29 07:23:28;;;;;;;4.25;1.87;;;14.00;69.70;;;;;;2285980;57;20913;-68
2023/12/29 07:25:55;;;;;;;3.75;1.90;;;14.00;69.70;;;;;;2286749;57;20910;-68
2023/12/29 07:28:21;;;;;;;3.37;1.73;;;14.00;69.70;;;;;;2285250;56;21041;-68
2023/12/29 07:30:47;;;;;;;3.55;1.75;;;14.10;69.80;;;;;;2503144;54;21275;-68
2023/12/29 07:33:14;;;;;;;2.95;1.70;;;14.00;69.70;;;;;;2284000;55;21078;-68
2023/12/29 07:35:40;;;;;;;2.95;1.70;;;14.00;69.80;;;;;;2286880;55;21049;-68
2023/12/29 07:38:06;;;;;;;3.67;1.90;;;14.00;69.80;;;;;;2286543;55;21399;-68
2023/12/29 07:40:33;;;;;;;3.78;1.80;;;14.00;69.80;;;;;;2519946;54;20998;-68
2023/12/29 07:42:59;;;;;;;3.67;1.98;;;14.00;69.80;;;;;;2286423;55;21082;-68
2023/12/29 07:45:26;;;;;;;3.62;1.87;;;14.10;69.90;;;;;;2285833;55;20989;-67
2023/12/29 07:47:53;;;;;;;4.32;2.05;;;14.00;69.80;;;;;;2520941;54;20938;-68
2023/12/29 07:50:20;;;;;;;4.35;2.03;;;14.10;69.90;;;;;;2286520;56;20974;-67
2023/12/29 07:52:47;;;;;;;3.37;1.92;;;14.10;69.90;;;;;;2286246;57;20970;-68
2023/12/29 07:55:16;;;;;;;4.75;2.00;;;14.10;69.90;;;;;;2286035;56;20937;-68
2023/12/29 07:57:43;;;;;;;3.70;2.10;;;14.10;70.00;;;;;;2520915;54;20957;-67
2023/12/29 08:00:09;;;;;;;3.40;1.35;;;14.10;70.00;;;;;;2520211;55;21068;-68
2023/12/29 08:02:36;;;;;;;2.85;1.67;;;14.10;70.00;;;;;;2285138;57;20991;-68
2023/12/29 08:05:02;;;;;;;3.20;1.75;;;14.10;70.00;;;;;;2286093;57;21467;-68
2023/12/29 08:07:29;;;;;;;3.03;1.62;;;14.10;70.10;;;;;;2284999;57;21346;-68
2023/12/29 08:09:56;;;;;;;3.30;1.87;;;14.10;70.10;;;;;;2520685;54;20922;-68
2023/12/29 08:12:26;;;;;;;4.85;1.83;;;14.10;70.10;;;;;;2274378;55;21027;-67
2023/12/29 08:14:53;;;;;;;4.30;2.00;;;14.10;70.00;;;;;;2470339;55;21065;-68
2023/12/29 08:17:19;;;;;;;3.72;2.00;;;14.20;70.10;;;;;;2487871;54;20916;-68
2023/12/29 08:19:48;;;;;;;3.33;1.90;;;14.20;70.10;;;;;;2285177;56;21364;-67
2023/12/29 08:22:15;;;;;;;2.87;1.70;;;14.20;70.10;;;;;;2520400;55;20938;-68
2023/12/29 08:24:44;;;;;;;4.28;1.95;;;14.20;70.10;;;;;;2286170;55;20990;-68
2023/12/29 08:27:12;;;;;;;3.08;1.70;;;14.20;70.00;;;;;;2286431;55;20929;-68
2023/12/29 08:29:38;;;;;;;4.15;1.90;;;14.20;70.10;;;;;;2519760;54;21064;-68
2023/12/29 08:32:05;;;;;;;3.30;1.75;;;14.20;70.20;;;;;;2286242;57;21450;-68
2023/12/29 08:34:34;;;;;;;3.00;1.70;;;14.30;70.30;;;;;;2519434;54;20970;-68
2023/12/29 08:37:04;;;;;;;3.50;1.73;;;14.30;70.30;;;;;;2286472;57;20922;-67
2023/12/29 08:39:31;;;;;;;3.25;1.67;;;14.30;71.00;;;;;;2285922;55;21004;-68
2023/12/29 08:41:57;;;;;;;3.42;1.65;;;14.30;70.30;;;;;;2522852;54;21004;-68
2023/12/29 08:44:24;;;;;;;2.87;1.50;;;14.40;70.40;;;;;;2525552;54;20971;-68
2023/12/29 08:46:50;;;;;;;3.85;1.98;;;14.40;70.50;;;;;;2520508;54;20894;-67
2023/12/29 08:49:18;;;;;;;3.87;2.17;;;14.40;70.40;;;;;;2519428;54;20990;-67
2023/12/29 08:51:48;;;;;;;3.47;1.60;;;14.40;70.40;;;;;;2520518;54;21009;-68
2023/12/29 08:54:15;;;;;;;3.17;1.75;;;14.40;70.40;;;;;;2286181;55;20942;-68
2023/12/29 08:56:41;;;;;;;3.67;1.98;;;14.40;70.30;;;;;;2286888;55;21466;-67
2023/12/29 08:59:08;;;;;;;3.85;1.80;;;14.50;70.50;;;;;;2520806;54;20938;-68
2023/12/29 09:01:34;;;;;;;4.40;2.05;;;14.50;70.50;;;;;;2519915;54;20918;-68
2023/12/29 09:04:01;;;;;;;4.07;1.80;;;14.50;70.50;;;;;;2286088;55;20981;-68
2023/12/29 09:06:27;;;;;;;3.28;1.67;;;14.50;70.50;;;;;;2285617;55;20929;-68
2023/12/29 09:08:54;;;;;;;4.25;1.90;;;14.60;70.60;;;;;;2520366;54;20998;-67
2023/12/29 09:11:21;;;;;;;4.75;1.70;;;14.60;70.60;;;;;;2285802;55;20977;-68
2023/12/29 09:13:47;;;;;;;4.07;1.80;;;14.60;70.50;;;;;;2286080;55;21013;-68
2023/12/29 09:16:14;;;;;;;3.70;1.50;;;14.70;70.50;;;;;;2520032;54;21025;-69
2023/12/29 09:18:40;;;;;;;3.20;1.75;;;14.70;70.50;;;;;;2281273;55;20958;-67
2023/12/29 09:21:06;;;;;;;3.78;1.95;;;14.70;70.30;;;;;;2279040;55;20997;-67
2023/12/29 09:23:33;;;;;;;2.95;1.48;;;14.70;70.30;;;;;;2284769;56;20929;-68
2023/12/29 09:26:00;;;;;;;3.33;1.50;;;14.70;70.20;;;;;;2520550;54;20930;-68
2023/12/29 09:28:26;;;;;;;3.40;1.50;;;14.80;70.30;;;;;;2286075;56;21770;-68
2023/12/29 09:30:55;;;;;;;2.97;1.42;;;14.80;70.20;;;;;;2502572;54;21099;-68
2023/12/29 09:33:24;;;;;;;3.12;1.60;;;14.80;70.10;;;;;;2518915;54;20997;-68
2023/12/29 09:35:51;;;;;;;3.40;1.62;;;14.80;70.00;;;;;;2503053;54;20943;-68
2023/12/29 09:38:18;;;;;;;3.08;1.60;;;14.90;70.20;;;;;;2286856;55;21021;-68
2023/12/29 09:40:46;;;;;;;3.42;1.52;;;14.90;70.10;;;;;;2285943;57;21033;-68
2023/12/29 09:43:12;;;;;;;3.22;1.80;;;14.90;70.10;;;;;;2286233;55;21297;-67
2023/12/29 09:45:38;;;;;;;3.75;1.98;;;14.90;70.10;;;;;;2286547;57;20993;-67
2023/12/29 09:48:07;;;;;;;3.67;1.75;;;14.90;70.10;;;;;;2286553;57;20945;-67
2023/12/29 09:50:34;;;;;;;3.20;1.50;;;14.90;70.00;;;;;;2285694;56;20930;-67
2023/12/29 09:53:02;;;;;;;2.97;1.30;;;14.90;70.10;;;;;;2520515;55;21029;-68
2023/12/29 09:55:29;;;;;;;2.87;1.40;;;14.90;70.00;;;;;;2285124;55;20953;-67
2023/12/29 09:57:56;;;;;;;2.70;1.58;;;14.90;70.00;;;;;;2517544;55;20920;-68
2023/12/29 10:00:22;;;;;;;4.90;1.52;;;15.00;70.20;;;;;;2271288;55;21092;-68
2023/12/29 10:03:07;;;;;;;2.95;1.60;;;15.00;70.20;;;;;;2263646;57;21019;-67
2023/12/29 10:05:33;;;;;;;3.15;1.60;;;15.10;69.60;;;;;;2252165;55;20963;-67
2023/12/29 10:08:06;;;;;;;3.00;1.30;;;15.00;70.20;;;;;;2252710;55;21090;-67
2023/12/29 10:10:32;;;;;;;3.15;1.40;;;15.10;70.10;;;;;;2237596;56;21008;-68
2023/12/29 10:13:00;;;;;;;2.67;1.40;;;15.10;70.30;;;;;;2252010;56;20966;-68
2023/12/29 10:15:42;;;;;;;3.28;1.50;;;15.10;70.20;;;;;;2255278;56;21398;-67
2023/12/29 10:19:45;;;;;;;2.58;1.37;;;15.20;69.80;;;;;;2463727;54;20965;-68
2023/12/29 10:22:48;;;;;;;4.05;1.20;;;15.20;69.10;;;;;;2476103;55;20967;-68
2023/12/29 10:25:14;;;;;;;2.87;1.20;;;15.20;69.50;;;;;;2478777;55;21039;-68
2023/12/29 10:27:41;;;;;;;3.45;1.58;;;15.30;70.20;;;;;;2251766;57;21035;-68
2023/12/29 10:30:09;;;;;;;2.37;1.17;;;15.30;70.10;;;;;;2478561;55;20967;-68
2023/12/29 10:32:36;;;;;;;2.55;1.50;;;15.20;70.00;;;;;;2477842;55;21022;-68
2023/12/29 10:35:12;;;;;;;2.65;1.27;;;15.30;70.10;;;;;;2483624;55;21060;-68
2023/12/29 10:37:38;;;;;;;3.15;1.20;;;15.30;69.80;;;;;;2249702;57;21006;-68
2023/12/29 10:40:05;;;;;;;2.70;1.40;;;15.30;70.10;;;;;;2252396;57;20971;-67
2023/12/29 10:42:34;;;;;;;3.12;1.70;;;15.30;70.00;;;;;;2490071;55;21271;-68
2023/12/29 10:45:06;;;;;;;2.58;1.25;;;15.50;70.20;;;;;;2251769;56;20927;-68
2023/12/29 10:47:32;;;;;;;4.07;1.50;;;15.40;69.90;;;;;;2478071;55;20963;-68
2023/12/29 10:50:00;;;;;;;3.85;1.60;;;15.40;70.00;;;;;;2252731;57;21380;-68
2023/12/29 10:52:27;;;;;;;2.47;1.10;;;15.40;70.00;;;;;;2478414;55;21030;-68
2023/12/29 10:58:22;;;;;;;2.50;0.93;;;15.50;69.20;;;;;;2479123;55;21031;-68
2023/12/29 11:00:48;;;;;;;2.45;1.08;;;15.60;70.20;;;;;;2235881;57;21019;-68
2023/12/29 11:03:16;;;;;;;4.87;1.40;;;15.50;70.20;;;;;;2239188;57;20980;-68
2023/12/29 11:05:44;;;;;;;2.37;1.05;;;15.60;70.20;;;;;;2242531;56;21370;-67
2023/12/29 11:08:19;;;;;;;2.47;1.10;;;15.60;70.10;;;;;;2227293;56;20971;-67
2023/12/29 11:10:48;;;;;;;2.22;1.10;;;15.70;69.90;;;;;;2254447;56;20947;-68
2023/12/29 11:13:14;;;;;;;3.25;1.10;;;15.70;70.40;;;;;;2249550;57;21267;-68
2023/12/29 11:15:44;;;;;;;4.57;2.03;;;15.70;70.70;;;;;;2255980;55;21921;-68
2023/12/29 11:18:17;;;;;;;2.78;1.30;;;15.80;70.80;;;;;;2251877;55;21014;-68
2023/12/29 11:20:45;;;;;;;5.12;1.58;;;15.80;70.60;;;;;;2251347;55;21547;-68
2023/12/29 11:26:40;;;;;;;2.53;1.30;;;16.00;69.70;;;;;;2478238;55;20998;-68
2023/12/29 11:29:08;;;;;;;3.25;1.17;;;16.10;70.60;;;;;;2252504;55;21038;-68
2023/12/29 11:31:34;;;;;;;2.78;1.17;;;16.10;70.40;;;;;;2252344;55;20974;-67
2023/12/29 11:34:06;;;;;;;3.70;1.60;;;16.10;70.30;;;;;;2251864;55;21014;-68
2023/12/29 11:36:40;;;;;;;3.37;1.40;;;16.20;70.00;;;;;;2257410;55;20979;-68
2023/12/29 11:39:27;;;;;;;5.00;1.25;;;16.20;69.70;;;;;;2253291;55;20966;-68
2023/12/29 11:43:57;;;;;;;2.65;1.40;;;16.30;69.10;;;;;;2251926;56;21059;-68
2023/12/29 11:46:37;;;;;;;2.92;1.42;;;16.30;69.30;;;;;;2251819;55;21038;-68
2023/12/29 11:49:04;;;;;;;1.95;1.02;;;16.30;69.20;;;;;;2252161;57;21784;-68
2023/12/29 11:51:33;;;;;;;2.35;1.20;;;16.40;70.00;;;;;;2252283;57;20966;-68
2023/12/29 11:54:04;;;;;;;3.35;1.23;;;16.40;69.80;;;;;;2251839;56;20970;-67
2023/12/29 11:56:37;;;;;;;3.22;1.62;;;16.40;69.70;;;;;;2478903;55;20974;-68
2023/12/29 12:00:55;;;;;;;3.62;1.67;;;16.40;69.40;;;;;;2252618;56;21007;-68
2023/12/29 12:03:25;;;;;;;3.10;1.40;;;16.50;68.20;;;;;;2477906;55;21023;-68
2023/12/29 12:05:52;;;;;;;3.00;1.30;;;16.50;69.40;;;;;;2463878;55;21025;-68
2023/12/29 12:08:39;;;;;;;2.75;1.30;;;16.50;69.60;;;;;;2466299;55;20979;-68
2023/12/29 12:11:49;;;;;;;2.87;1.30;;;16.50;68.60;;;;;;2251838;56;21259;-68
2023/12/29 12:14:44;;;;;;;2.90;1.42;;;16.60;68.20;;;;;;2252181;56;20951;-68
2023/12/29 12:17:13;;;;;;;2.50;1.20;;;16.50;68.40;;;;;;2251851;56;21059;-69
2023/12/29 12:19:41;;;;;;;3.33;1.40;;;16.60;69.60;;;;;;2250139;57;21411;-69
2023/12/29 12:22:09;;;;;;;2.50;1.27;;;16.60;69.40;;;;;;2250609;57;21016;-68
2023/12/29 12:24:39;;;;;;;2.92;1.40;;;16.70;69.30;;;;;;2255633;56;21536;-68
2023/12/29 12:27:10;;;;;;;2.70;1.42;;;16.70;69.10;;;;;;2478654;55;21046;-68
2023/12/29 12:29:39;;;;;;;4.00;1.50;;;16.70;69.00;;;;;;2252335;55;21003;-68
2023/12/29 12:32:07;;;;;;;2.72;1.42;;;16.70;69.10;;;;;;2251528;55;21031;-68
2023/12/29 12:34:37;;;;;;;2.90;1.33;;;16.80;69.30;;;;;;2478382;55;21475;-68
2023/12/29 12:37:03;;;;;;;2.60;1.30;;;16.80;68.90;;;;;;2251811;55;21086;-68
2023/12/29 12:39:40;;;;;;;3.00;1.55;;;16.80;69.20;;;;;;2478166;55;21491;-69
2023/12/29 12:42:06;;;;;;;2.62;1.42;;;16.90;68.40;;;;;;2231695;56;21030;-69
2023/12/29 12:44:32;;;;;;;3.70;1.33;;;16.90;69.00;;;;;;2478525;55;21900;-68
2023/12/29 12:46:59;;;;;;;2.90;1.25;;;16.90;68.70;;;;;;2477897;55;21030;-68
2023/12/29 12:49:26;;;;;;;3.33;1.30;;;17.00;68.50;;;;;;2252057;57;21503;-68
2023/12/29 12:51:53;;;;;;;2.47;1.17;;;17.10;68.40;;;;;;2250555;56;20978;-68
2023/12/29 12:54:20;;;;;;;3.87;1.60;;;17.10;68.10;;;;;;2250900;57;21038;-68
2023/12/29 12:56:46;;;;;;;2.28;1.10;;;17.10;68.00;;;;;;2251625;57;20963;-68
2023/12/29 12:59:12;;;;;;;2.70;1.00;;;17.10;67.90;;;;;;2251506;56;21299;-68
2023/12/29 13:01:40;;;;;;;2.22;1.10;;;17.20;67.80;;;;;;2253549;56;20997;-67
2023/12/29 13:04:06;;;;;;;2.33;1.15;;;17.20;67.40;;;;;;2255210;56;21062;-68
2023/12/29 13:06:33;;;;;;;2.17;0.85;;;17.20;67.20;;;;;;2256294;56;21298;-68
2023/12/29 13:09:02;;;;;;;2.90;1.40;;;17.20;67.10;;;;;;2256273;56;21030;-68